Princeton, MN

6:59 AM CST on November 15, 2019 (GMT -0600)
Princeton Municipal

Weather History for KPNM - August, 2019

Change the Weather History Date:

Friday, August 9, 2019

  Actual Average Record
Temperature  
Mean Temperature 63 °F -  
Max Temperature 80 °F 77 °F 93 °F (2007)
Min Temperature 46 °F 54 °F 46 °F (2019)
Degree Days  
Heating Degree Days 2    
Growing Degree Days 13 (Base 50)    
Moisture  
Dew Point 53 °F    
Average Humidity 68    
Maximum Humidity 100    
Minimum Humidity 32    
Precipitation  
Precipitation 0.00 in - - ()
Sea Level Pressure  
Sea Level Pressure 29.99 in    
Wind  
Wind Speed 1 mph (WSW)    
Max Wind Speed 9 mph    
Max Gust Speed -    
Visibility 10 miles    
Events      
Averages and records for this station are not official NWS values.
T = Trace of Precipitation, MM = Missing Value Source: NWS Daily Summary

Daily Weather History Graph

Daily Weather History Graph

Search for Another Location

Airport or City:

Astronomy

Aug. 09, 2019 Rise Set
Actual Time 6:07 AM CDT 8:31 PM CDT
Civil Twilight 5:34 AM CDT 9:04 PM CDT
Nautical Twilight 4:52 AM CDT 9:45 PM CDT
Astronomical Twilight 4:05 AM CDT 10:32 PM CDT
Moon 4:17 PM CDT (8/9) 1:03 AM CDT (8/9)
Length of Visible Light 15h 30m
Length of Day
14h 24m
Waxing Gibbous, 70% of the Moon is Illuminated
Aug 9
Waxing Gibbous
Aug 15
Full
Aug 23
Last Quarter
Aug 30
New
Sep 5
First Quarter

Hourly Weather History & Observations

Time (CDT) Temp. Dew Point Humidity Pressure Visibility Wind Dir Wind Speed Gust Speed Precip Events Conditions
12:35 AM 53.6 °F 50.0 °F 88% 29.99 in 10.0 mi Calm Calm - N/A   Clear
12:36 AM 53.6 °F 50.0 °F 88% 29.99 in 10.0 mi Calm Calm - N/A   Clear
12:59 AM 51.8 °F 50.0 °F 94% 29.99 in 10.0 mi Calm Calm - N/A   Clear
1:17 AM 51.8 °F 50.0 °F 94% 29.98 in 10.0 mi Calm Calm - N/A   Clear
1:35 AM 50.0 °F 48.2 °F 94% 29.98 in 10.0 mi Calm Calm - N/A   Clear
1:55 AM 50.0 °F 48.2 °F 94% 29.98 in 10.0 mi Calm Calm - N/A   Clear
2:15 AM 50.0 °F 48.2 °F 94% 29.98 in 10.0 mi Calm Calm - N/A   Clear
2:20 AM 50.0 °F 48.2 °F 94% 29.98 in 5.0 mi Calm Calm - N/A   Clear
2:38 AM 48.2 °F 46.4 °F 93% 29.98 in 10.0 mi Calm Calm - N/A   Clear
2:56 AM 50.0 °F 48.2 °F 94% 29.98 in 10.0 mi Calm Calm - N/A   Clear
3:15 AM 50.0 °F 48.2 °F 94% 29.98 in 10.0 mi Calm Calm - N/A   Clear
3:16 AM 50.0 °F 48.2 °F 94% 29.98 in 10.0 mi Calm Calm - N/A   Clear
3:35 AM 50.0 °F 48.2 °F 94% 29.98 in 4.0 mi Calm Calm - N/A   Clear
3:59 AM 48.2 °F 48.2 °F 100% 29.97 in 7.0 mi Calm Calm - N/A   Clear
4:17 AM 48.2 °F 46.4 °F 93% 29.98 in 7.0 mi Calm Calm - N/A   Clear
4:35 AM 48.2 °F 48.2 °F 100% 29.98 in 10.0 mi Calm Calm - N/A   Clear
4:55 AM 46.4 °F 46.4 °F 100% 29.98 in 10.0 mi Calm Calm - N/A   Clear
4:56 AM 46.4 °F 46.4 °F 100% 29.98 in 7.0 mi Calm Calm - N/A   Clear
5:15 AM 48.2 °F 46.4 °F 93% 30.00 in 10.0 mi Calm Calm - N/A   Clear
5:20 AM 46.4 °F 46.4 °F 100% 30.00 in 10.0 mi Calm Calm - N/A   Clear
5:38 AM 46.4 °F 46.4 °F 100% 30.01 in 2.5 mi Calm Calm - N/A   Clear
5:56 AM 46.4 °F 46.4 °F 100% 30.01 in 10.0 mi Calm Calm - N/A   Clear
6:15 AM 48.2 °F 48.2 °F 100% 30.01 in 10.0 mi Calm Calm - N/A   Clear
6:16 AM 48.2 °F 48.2 °F 100% 30.00 in 10.0 mi Calm Calm - N/A   Clear
6:35 AM 48.2 °F 46.4 °F 93% 30.01 in 1.8 mi Calm Calm - N/A   Clear
6:59 AM 51.8 °F 50.0 °F 94% 30.01 in 10.0 mi Calm Calm - N/A   Clear
7:17 AM 53.6 °F 51.8 °F 94% 30.02 in 10.0 mi Calm Calm - N/A   Clear
7:55 AM 59.0 °F 55.4 °F 88% 30.02 in 10.0 mi Calm Calm - N/A   Clear
8:15 AM 62.6 °F 55.4 °F 77% 30.02 in 10.0 mi Calm Calm - N/A   Clear
8:19 AM 62.6 °F 55.4 °F 77% 30.02 in 10.0 mi Calm Calm - N/A   Clear
8:38 AM 64.4 °F 55.4 °F 73% 30.02 in 10.0 mi Calm Calm - N/A   Clear
8:56 AM 66.2 °F 53.6 °F 64% 30.02 in 10.0 mi West 4.6 mph - N/A   Clear
9:15 AM 68.0 °F 55.4 °F 64% 30.03 in 10.0 mi West 4.6 mph - N/A   Clear
9:16 AM 68.0 °F 55.4 °F 64% 30.03 in 10.0 mi West 4.6 mph - N/A   Clear
9:35 AM 69.8 °F 53.6 °F 56% 30.03 in 10.0 mi WNW 3.5 mph - N/A   Clear
9:36 AM 69.8 °F 53.6 °F 56% 30.03 in 10.0 mi WNW 3.5 mph - N/A   Clear
9:59 AM 71.6 °F 53.6 °F 53% 30.03 in 10.0 mi WNW 4.6 mph - N/A   Clear
10:17 AM 73.4 °F 53.6 °F 50% 30.02 in 10.0 mi West 3.5 mph - N/A   Clear
10:35 AM 75.2 °F 53.6 °F 47% 30.02 in 10.0 mi West 4.6 mph - N/A   Clear
10:55 AM 75.2 °F 51.8 °F 44% 30.03 in 10.0 mi West 4.6 mph - N/A   Clear
11:15 AM 75.2 °F 51.8 °F 44% 30.03 in 10.0 mi WSW 9.2 mph - N/A   Clear
11:19 AM 75.2 °F 51.8 °F 44% 30.03 in 10.0 mi West 6.9 mph - N/A   Clear
11:38 AM 77.0 °F 50.0 °F 39% 30.03 in 10.0 mi WNW 3.5 mph - N/A   Clear
11:56 AM 77.0 °F 48.2 °F 36% 30.02 in 10.0 mi West 6.9 mph - N/A   Clear
12:15 PM 78.8 °F 48.2 °F 34% 30.02 in 10.0 mi West 5.8 mph - N/A   Clear
12:35 PM 78.8 °F 50.0 °F 36% 30.01 in 10.0 mi West 6.9 mph - N/A   Clear
12:36 PM 78.8 °F 50.0 °F 36% 30.01 in 10.0 mi West 6.9 mph - N/A   Clear
12:59 PM 78.8 °F 48.2 °F 34% 30.01 in 10.0 mi North 3.5 mph - N/A   Clear
1:17 PM 78.8 °F 48.2 °F 34% 30.01 in 10.0 mi SSW 3.5 mph - N/A   Clear
1:35 PM 80.6 °F 48.2 °F 32% 30.01 in 10.0 mi NW 6.9 mph - N/A   Clear
1:55 PM 78.8 °F 48.2 °F 34% 30.01 in 10.0 mi West 3.5 mph - N/A   Clear
1:56 PM 78.8 °F 48.2 °F 34% 30.00 in 10.0 mi Calm Calm - N/A   Clear
2:38 PM 80.6 °F 50.0 °F 34% 29.99 in 10.0 mi WSW 5.8 mph - N/A   Clear
2:56 PM 80.6 °F 48.2 °F 32% 29.98 in 10.0 mi Calm Calm - N/A   Clear
3:15 PM 80.6 °F 48.2 °F 32% 29.97 in 10.0 mi WSW 5.8 mph - N/A   Clear
3:35 PM 80.6 °F 48.2 °F 32% 29.98 in 10.0 mi WSW 6.9 mph - N/A   Clear
3:58 PM 78.8 °F 48.2 °F 34% 29.97 in 10.0 mi West 4.6 mph - N/A   Clear
4:16 PM 78.8 °F 50.0 °F 36% 29.98 in 10.0 mi SW 4.6 mph - N/A   Clear
4:35 PM 78.8 °F 51.8 °F 39% 29.98 in 10.0 mi SW 5.8 mph - N/A   Clear
4:55 PM 80.6 °F 51.8 °F 37% 29.97 in 10.0 mi SSW 3.5 mph - N/A   Clear
4:56 PM 80.6 °F 51.8 °F 37% 29.97 in 10.0 mi SW 4.6 mph - N/A   Clear
5:19 PM 78.8 °F 51.8 °F 39% 29.97 in 10.0 mi SW 5.8 mph - N/A   Clear
5:37 PM 77.0 °F 53.6 °F 44% 29.98 in 10.0 mi SW 4.6 mph - N/A   Clear
5:55 PM 75.2 °F 53.6 °F 47% 29.98 in 7.0 mi SW 3.5 mph - N/A   Clear
5:56 PM 75.2 °F 53.6 °F 47% 29.98 in 7.0 mi Calm Calm - N/A   Clear
6:15 PM 75.2 °F 53.6 °F 47% 29.98 in 10.0 mi SW 3.5 mph - N/A   Clear
6:16 PM 75.2 °F 53.6 °F 47% 29.98 in 10.0 mi SW 3.5 mph - N/A   Clear
6:35 PM 75.2 °F 55.4 °F 50% 29.98 in 10.0 mi Calm Calm - N/A   Clear
6:58 PM 73.4 °F 55.4 °F 53% 29.98 in 10.0 mi Calm Calm - N/A   Clear
7:16 PM 73.4 °F 57.2 °F 57% 29.98 in 10.0 mi Calm Calm - N/A   Clear
7:35 PM 73.4 °F 57.2 °F 57% 29.98 in 10.0 mi Calm Calm - N/A   Clear
7:36 PM 73.4 °F 57.2 °F 57% 29.98 in 10.0 mi Calm Calm - N/A   Clear
7:55 PM 71.6 °F 59.0 °F 64% 29.98 in 10.0 mi Calm Calm - N/A   Clear
8:19 PM 71.6 °F 57.2 °F 60% 29.98 in 10.0 mi Calm Calm - N/A   Scattered Clouds
8:37 PM 71.6 °F 59.0 °F 64% 29.98 in 10.0 mi Calm Calm - N/A   Scattered Clouds
8:55 PM 69.8 °F 59.0 °F 68% 29.98 in 10.0 mi Calm Calm - N/A   Scattered Clouds
8:56 PM 69.8 °F 60.8 °F 73% 29.98 in 10.0 mi Calm Calm - N/A   Clear
9:15 PM 66.2 °F 60.8 °F 83% 29.97 in 10.0 mi Calm Calm - N/A   Clear
9:16 PM 66.2 °F 60.8 °F 83% 29.98 in 10.0 mi Calm Calm - N/A   Clear
9:35 PM 66.2 °F 60.8 °F 83% 29.98 in 10.0 mi Calm Calm - N/A   Clear
9:40 PM 66.2 °F 59.0 °F 78% 29.97 in 10.0 mi Calm Calm - N/A   Clear
9:58 PM 66.2 °F 59.0 °F 78% 29.98 in 10.0 mi Calm Calm - N/A   Clear
10:16 PM 66.2 °F 60.8 °F 83% 29.98 in 10.0 mi Calm Calm - N/A   Scattered Clouds
10:35 PM 66.2 °F 60.8 °F 83% 29.98 in 10.0 mi Calm Calm - N/A   Scattered Clouds
10:36 PM 66.2 °F 60.8 °F 83% 29.98 in 10.0 mi Calm Calm - N/A   Scattered Clouds
10:55 PM 66.2 °F 60.8 °F 83% 29.97 in 10.0 mi Calm Calm - N/A   Clear
10:56 PM 66.2 °F 60.8 °F 83% 29.97 in 10.0 mi Calm Calm - N/A   Clear
11:19 PM 66.2 °F 60.8 °F 83% 29.98 in 10.0 mi Calm Calm - N/A   Scattered Clouds
11:37 PM 66.2 °F 60.8 °F 83% 29.98 in 10.0 mi Calm Calm - N/A   Mostly Cloudy
11:55 PM 66.2 °F 60.8 °F 83% 29.98 in 10.0 mi Calm Calm - N/A   Overcast
11:56 PM 66.2 °F 60.8 °F 83% 29.97 in 10.0 mi Calm Calm - N/A   Overcast